Time;durP1;ratioP1;P1;durP2;ratioP2;P2;SDS_P1;SDS_P2;PMS_P1;PMS_P2;Temp;Humidity;BMP_temperature;BMP_pressure;BME280_temperature;BME280_humidity;BME280_pressure;Samples;Min_cycle;Max_cycle;Signal;HPM_P1;HPM_P2
2022/11/13 00:01:33;;;;;;;5.80;4.85;;;3.70;99.90;;;;;;5010806;28;20259;-71
2022/11/13 00:04:00;;;;;;;4.95;4.20;;;3.70;99.90;;;;;;5011104;28;20569;-72
2022/11/13 00:06:27;;;;;;;5.90;4.40;;;3.70;99.90;;;;;;5011450;28;20203;-72
2022/11/13 00:08:55;;;;;;;5.80;4.70;;;3.60;99.90;;;;;;5011275;28;20640;-71
2022/11/13 00:11:22;;;;;;;6.25;4.30;;;3.60;99.90;;;;;;5011047;28;20227;-72
2022/11/13 00:13:50;;;;;;;4.55;4.15;;;3.60;99.90;;;;;;5011578;28;20203;-71
2022/11/13 00:16:18;;;;;;;5.95;4.90;;;3.60;99.90;;;;;;5010761;28;20233;-71
2022/11/13 00:18:46;;;;;;;5.38;4.10;;;3.50;99.90;;;;;;5011338;28;20241;-71
2022/11/13 00:21:15;;;;;;;5.30;4.65;;;3.50;99.90;;;;;;5010216;28;20234;-71
2022/11/13 00:23:42;;;;;;;5.32;4.50;;;3.50;99.90;;;;;;5011429;28;20326;-71
2022/11/13 00:26:13;;;;;;;4.10;3.70;;;3.50;99.90;;;;;;5011626;28;20206;-71
2022/11/13 00:28:40;;;;;;;5.13;3.90;;;3.40;99.90;;;;;;5010391;28;20903;-72
2022/11/13 00:31:08;;;;;;;5.55;4.72;;;3.40;99.90;;;;;;5011013;28;20231;-72
2022/11/13 00:33:35;;;;;;;8.57;4.68;;;3.40;99.90;;;;;;5011027;28;20207;-71
2022/11/13 00:36:03;;;;;;;3.97;3.67;;;3.40;99.90;;;;;;5010842;28;20207;-72
2022/11/13 00:38:30;;;;;;;4.85;4.15;;;3.40;99.90;;;;;;5010961;28;20261;-72
2022/11/13 00:40:57;;;;;;;5.15;4.13;;;3.40;99.90;;;;;;5009516;28;20237;-72
2022/11/13 00:43:25;;;;;;;5.20;4.00;;;3.40;99.90;;;;;;5009930;28;20590;-72
2022/11/13 00:45:52;;;;;;;5.43;3.78;;;3.40;99.90;;;;;;5011081;28;20207;-72
2022/11/13 00:48:19;;;;;;;5.05;4.07;;;3.40;99.90;;;;;;5010640;28;20210;-72
2022/11/13 00:50:46;;;;;;;4.10;3.80;;;3.40;99.90;;;;;;5009926;28;20227;-72
2022/11/13 00:53:13;;;;;;;4.32;3.60;;;3.30;99.90;;;;;;5010160;28;20207;-72
2022/11/13 00:55:40;;;;;;;4.35;3.70;;;3.30;99.90;;;;;;5010641;28;20199;-71
2022/11/13 00:58:07;;;;;;;4.88;3.97;;;3.40;99.90;;;;;;5016600;28;20198;-72
2022/11/13 01:00:35;;;;;;;4.88;4.47;;;3.30;99.90;;;;;;5030012;28;20582;-71
2022/11/13 01:03:01;;;;;;;5.80;4.05;;;3.30;99.90;;;;;;5031372;28;20669;-72
2022/11/13 01:05:29;;;;;;;5.07;4.15;;;3.30;99.90;;;;;;5031076;28;20214;-71
2022/11/13 01:07:55;;;;;;;6.05;4.68;;;3.20;99.90;;;;;;5031200;28;20601;-72
2022/11/13 01:10:23;;;;;;;4.22;3.53;;;3.20;99.90;;;;;;5030463;28;20223;-71
2022/11/13 01:12:49;;;;;;;3.78;3.47;;;3.20;99.90;;;;;;5030881;28;20673;-72
2022/11/13 01:15:16;;;;;;;4.93;4.28;;;3.20;99.90;;;;;;5031166;28;20685;-71
2022/11/13 01:17:44;;;;;;;6.28;4.03;;;3.20;99.90;;;;;;5030621;28;20206;-72
2022/11/13 01:20:11;;;;;;;5.43;4.88;;;3.20;99.90;;;;;;5030761;28;20218;-72
2022/11/13 01:22:38;;;;;;;4.90;4.10;;;3.20;99.90;;;;;;5030555;28;20241;-72
2022/11/13 01:25:06;;;;;;;6.90;4.00;;;3.10;99.90;;;;;;5030075;28;20208;-72
2022/11/13 01:27:35;;;;;;;4.65;3.72;;;3.20;99.90;;;;;;5030957;28;20199;-72
2022/11/13 01:30:02;;;;;;;4.80;4.03;;;3.20;99.90;;;;;;5030325;28;20586;-71
2022/11/13 01:32:28;;;;;;;6.45;4.63;;;3.10;99.90;;;;;;5030279;28;20693;-71
2022/11/13 01:34:57;;;;;;;4.95;3.45;;;3.10;99.90;;;;;;5133753;22;20230;-71
2022/11/13 01:37:23;;;;;;;4.45;4.05;;;3.10;99.90;;;;;;5041933;28;20210;-70
2022/11/13 01:39:51;;;;;;;4.07;3.67;;;3.10;99.90;;;;;;5050527;28;20229;-70
2022/11/13 01:42:17;;;;;;;4.30;3.88;;;3.00;99.90;;;;;;5049111;28;20319;-70
2022/11/13 01:44:50;;;;;;;5.45;3.60;;;3.10;99.90;;;;;;5050385;28;20197;-71
2022/11/13 01:47:18;;;;;;;3.72;3.42;;;3.00;99.90;;;;;;5050378;28;20485;-71
2022/11/13 01:49:46;;;;;;;4.93;3.70;;;3.00;99.90;;;;;;5049622;28;20716;-71
2022/11/13 01:52:17;;;;;;;3.97;3.53;;;3.10;99.90;;;;;;5049786;28;20197;-70
2022/11/13 01:54:48;;;;;;;4.72;3.75;;;3.00;99.90;;;;;;5049830;28;20228;-71
2022/11/13 01:57:16;;;;;;;4.75;3.45;;;3.00;99.90;;;;;;5050426;28;20297;-71
2022/11/13 01:59:49;;;;;;;4.43;4.00;;;3.00;99.90;;;;;;5050352;28;20226;-71
2022/11/13 02:02:16;;;;;;;4.75;4.10;;;3.00;99.90;;;;;;5049075;28;20260;-71
2022/11/13 02:04:43;;;;;;;4.25;3.30;;;3.00;99.90;;;;;;5050538;28;20205;-71
2022/11/13 02:07:13;;;;;;;4.55;3.70;;;3.00;99.90;;;;;;5049910;28;20202;-71
2022/11/13 02:09:43;;;;;;;3.55;3.25;;;3.00;99.90;;;;;;5050155;28;20416;-71
2022/11/13 02:12:12;;;;;;;4.28;3.70;;;3.00;99.90;;;;;;5049563;28;20584;-70
2022/11/13 02:14:42;;;;;;;3.88;3.22;;;3.00;99.90;;;;;;5049676;28;20664;-71
2022/11/13 02:17:12;;;;;;;3.60;3.22;;;3.00;99.90;;;;;;5050089;28;20228;-71
2022/11/13 02:19:43;;;;;;;5.00;4.18;;;2.90;99.90;;;;;;5049661;28;20739;-71
2022/11/13 02:22:18;;;;;;;3.67;3.38;;;2.90;99.90;;;;;;5049375;28;20221;-71
2022/11/13 02:24:48;;;;;;;4.78;3.45;;;2.90;99.90;;;;;;5050273;28;20224;-70
2022/11/13 02:27:19;;;;;;;3.35;2.92;;;2.90;99.90;;;;;;5049579;28;20209;-71
2022/11/13 02:29:46;;;;;;;6.60;4.00;;;2.80;99.90;;;;;;5050080;28;20228;-71
2022/11/13 02:32:13;;;;;;;4.30;3.90;;;2.80;99.90;;;;;;5048914;28;20217;-71
2022/11/13 02:34:40;;;;;;;5.07;4.32;;;2.80;99.90;;;;;;5050060;28;20217;-70
2022/11/13 02:37:06;;;;;;;6.35;3.92;;;2.80;99.90;;;;;;5049794;28;20575;-71
2022/11/13 02:39:33;;;;;;;5.30;3.70;;;2.70;99.90;;;;;;5049481;28;20213;-70
2022/11/13 02:42:01;;;;;;;5.53;4.40;;;2.70;99.90;;;;;;5035726;28;20594;-71
2022/11/13 02:44:28;;;;;;;5.43;3.80;;;2.70;99.90;;;;;;5029924;28;20576;-71
2022/11/13 02:46:55;;;;;;;4.20;3.63;;;2.70;99.90;;;;;;5029755;28;20583;-71
2022/11/13 02:49:21;;;;;;;4.30;3.33;;;2.70;99.90;;;;;;5030080;28;20669;-71
2022/11/13 02:51:48;;;;;;;5.35;3.50;;;2.70;99.90;;;;;;5029364;28;20215;-70
2022/11/13 02:54:15;;;;;;;3.83;3.42;;;2.60;99.90;;;;;;5029888;28;20214;-70
2022/11/13 02:56:42;;;;;;;3.75;3.40;;;2.60;99.90;;;;;;5030367;28;20574;-70
2022/11/13 02:59:10;;;;;;;4.35;3.95;;;2.60;99.90;;;;;;5029223;28;20206;-70
2022/11/13 03:01:36;;;;;;;5.65;4.18;;;2.60;99.90;;;;;;5029350;28;20242;-71
2022/11/13 03:04:03;;;;;;;4.47;3.58;;;2.60;99.90;;;;;;5029390;28;20210;-71
2022/11/13 03:06:30;;;;;;;4.63;3.53;;;2.60;99.90;;;;;;5031685;28;20210;-71
2022/11/13 03:08:57;;;;;;;5.00;3.65;;;2.50;99.90;;;;;;5033439;28;20700;-70
2022/11/13 03:11:23;;;;;;;4.60;3.58;;;2.50;99.90;;;;;;5032383;28;20582;-71
2022/11/13 03:13:50;;;;;;;4.43;3.80;;;2.50;99.90;;;;;;5033427;28;20209;-70
2022/11/13 03:16:18;;;;;;;4.88;3.50;;;2.50;99.90;;;;;;5032950;28;20203;-70
2022/11/13 03:18:45;;;;;;;3.85;3.55;;;2.50;99.90;;;;;;5033142;28;20696;-71
2022/11/13 03:21:14;;;;;;;3.30;3.00;;;2.40;99.90;;;;;;5032321;28;20233;-71
2022/11/13 03:23:43;;;;;;;4.45;3.80;;;2.40;99.90;;;;;;5032832;28;20214;-71
2022/11/13 03:26:12;;;;;;;4.18;3.63;;;2.40;99.90;;;;;;5033039;28;20681;-71
2022/11/13 03:28:39;;;;;;;4.28;3.92;;;2.40;99.90;;;;;;5032652;28;20203;-71
2022/11/13 03:31:06;;;;;;;4.40;3.00;;;2.40;99.90;;;;;;5032067;28;20226;-70
2022/11/13 03:33:34;;;;;;;3.42;3.13;;;2.40;99.90;;;;;;5033143;28;20217;-71
2022/11/13 03:36:01;;;;;;;4.32;3.60;;;2.30;99.90;;;;;;5032383;28;20218;-70
2022/11/13 03:38:28;;;;;;;4.38;3.95;;;2.30;99.90;;;;;;5033037;28;20198;-70
2022/11/13 03:40:54;;;;;;;4.82;3.83;;;2.30;99.90;;;;;;5032087;28;20581;-70
2022/11/13 03:43:21;;;;;;;4.82;3.80;;;2.30;99.90;;;;;;5032809;28;20229;-71
2022/11/13 03:45:48;;;;;;;3.75;3.35;;;2.30;99.90;;;;;;5032979;28;20701;-70
2022/11/13 03:48:16;;;;;;;4.47;3.63;;;2.30;99.90;;;;;;5032185;28;20218;-70
2022/11/13 03:50:46;;;;;;;4.53;3.65;;;2.30;99.90;;;;;;5032195;28;20229;-70
2022/11/13 03:53:14;;;;;;;4.70;3.80;;;2.30;99.90;;;;;;5031879;28;20641;-71
2022/11/13 03:55:41;;;;;;;3.70;3.30;;;2.30;99.90;;;;;;5032787;28;20270;-71
2022/11/13 03:58:07;;;;;;;6.57;4.20;;;2.30;99.90;;;;;;5032433;28;20202;-70
2022/11/13 04:00:35;;;;;;;5.15;3.83;;;2.30;99.90;;;;;;5031508;28;20226;-71
2022/11/13 04:03:01;;;;;;;5.75;3.97;;;2.30;99.90;;;;;;5032342;28;20218;-70
2022/11/13 04:05:28;;;;;;;4.07;3.60;;;2.30;99.90;;;;;;5032213;28;20207;-70
2022/11/13 04:07:56;;;;;;;4.78;3.85;;;2.30;99.90;;;;;;5032440;28;20198;-71
2022/11/13 04:10:24;;;;;;;5.18;3.50;;;2.20;99.90;;;;;;5031573;28;20233;-71
2022/11/13 04:12:50;;;;;;;4.22;3.58;;;2.30;99.90;;;;;;5031996;28;20202;-71
2022/11/13 04:15:17;;;;;;;6.03;3.25;;;2.30;99.90;;;;;;5032207;28;20616;-71
2022/11/13 04:17:45;;;;;;;3.95;3.05;;;2.30;99.90;;;;;;5031998;28;20213;-71
2022/11/13 04:20:12;;;;;;;4.15;3.58;;;2.20;99.90;;;;;;5031761;28;20226;-71
2022/11/13 04:22:39;;;;;;;4.03;3.63;;;2.30;99.90;;;;;;5031735;28;20222;-70
2022/11/13 04:25:08;;;;;;;4.00;3.60;;;2.30;99.90;;;;;;5031622;28;20206;-70
2022/11/13 04:27:35;;;;;;;3.63;3.10;;;2.20;99.90;;;;;;5032175;28;20207;-70
2022/11/13 04:30:01;;;;;;;3.70;3.00;;;2.20;99.90;;;;;;5031444;28;20218;-70
2022/11/13 04:32:28;;;;;;;4.90;3.53;;;2.10;99.90;;;;;;5031486;28;20198;-70
2022/11/13 04:34:55;;;;;;;3.97;3.58;;;2.20;99.90;;;;;;5031948;28;20214;-70
2022/11/13 04:37:22;;;;;;;4.82;3.50;;;2.20;99.90;;;;;;5031368;28;20665;-69
2022/11/13 04:39:48;;;;;;;4.20;3.55;;;2.10;99.90;;;;;;5031877;28;20226;-70
2022/11/13 04:45:01;;;;;;;3.60;3.10;;;2.10;99.90;;;;;;5031754;28;20635;-69
2022/11/13 04:47:27;;;;;;;3.45;3.15;;;2.10;99.90;;;;;;5031687;28;20210;-70
2022/11/13 04:49:54;;;;;;;3.58;3.10;;;2.10;99.90;;;;;;5031197;28;20226;-70
2022/11/13 04:52:21;;;;;;;3.75;3.10;;;2.10;99.90;;;;;;5031343;28;20199;-70
2022/11/13 04:54:47;;;;;;;4.28;3.47;;;2.00;99.90;;;;;;5031784;28;20217;-69
2022/11/13 04:57:14;;;;;;;3.88;3.47;;;2.00;99.90;;;;;;5032004;28;20229;-70
2022/11/13 04:59:42;;;;;;;3.15;2.90;;;2.00;99.90;;;;;;5032051;28;20222;-68
2022/11/13 05:02:09;;;;;;;3.80;2.75;;;2.00;99.90;;;;;;5031038;28;20223;-69
2022/11/13 05:04:36;;;;;;;4.22;3.45;;;2.00;99.90;;;;;;5032331;28;20337;-70
2022/11/13 05:07:03;;;;;;;3.20;2.90;;;1.90;99.90;;;;;;5031450;28;20202;-71
2022/11/13 05:09:29;;;;;;;4.13;3.70;;;1.90;99.90;;;;;;5031708;28;20206;-69
2022/11/13 05:11:56;;;;;;;3.97;3.03;;;1.90;99.90;;;;;;5030789;28;20205;-70
2022/11/13 05:14:23;;;;;;;4.95;3.35;;;1.90;99.90;;;;;;5031332;28;20218;-70
2022/11/13 05:16:51;;;;;;;5.55;3.53;;;1.90;99.90;;;;;;5031594;28;20573;-70
2022/11/13 05:19:18;;;;;;;4.20;3.00;;;1.90;99.90;;;;;;5030975;28;20595;-71
2022/11/13 05:21:45;;;;;;;3.55;3.25;;;1.90;99.90;;;;;;5030899;28;20233;-69
2022/11/13 05:24:12;;;;;;;4.10;3.67;;;1.90;99.90;;;;;;5031175;28;20202;-70
2022/11/13 05:26:39;;;;;;;3.35;3.05;;;1.90;99.90;;;;;;5031115;28;20221;-70
2022/11/13 05:29:06;;;;;;;5.22;4.10;;;1.90;99.90;;;;;;5030713;28;20198;-70
2022/11/13 05:31:33;;;;;;;3.63;3.33;;;1.90;99.90;;;;;;5030443;28;20797;-70
2022/11/13 05:34:03;;;;;;;3.63;3.33;;;1.80;99.90;;;;;;5031107;28;20210;-70
2022/11/13 05:36:30;;;;;;;3.58;2.85;;;1.80;99.90;;;;;;5031600;28;20202;-70
2022/11/13 05:38:57;;;;;;;3.65;3.35;;;1.80;99.90;;;;;;5030820;28;20210;-71
2022/11/13 05:41:24;;;;;;;4.25;3.33;;;1.80;99.90;;;;;;5030798;28;20218;-70
2022/11/13 05:43:51;;;;;;;4.05;3.25;;;1.80;99.90;;;;;;5030687;28;20237;-70
2022/11/13 05:46:20;;;;;;;5.28;4.40;;;1.70;99.90;;;;;;5030990;28;20211;-70
2022/11/13 05:48:51;;;;;;;5.40;3.72;;;1.70;99.90;;;;;;5030943;28;20296;-70
2022/11/13 05:51:21;;;;;;;3.60;3.30;;;1.70;99.90;;;;;;5029988;28;20568;-70
2022/11/13 05:53:48;;;;;;;5.07;4.57;;;1.70;99.90;;;;;;5031304;28;20201;-69
2022/11/13 05:56:16;;;;;;;3.95;3.50;;;1.60;99.90;;;;;;5030471;28;20210;-71
2022/11/13 05:58:43;;;;;;;3.47;3.17;;;1.60;99.90;;;;;;5031103;28;20206;-70
2022/11/13 06:01:13;;;;;;;3.47;3.17;;;1.70;99.90;;;;;;5030037;28;20226;-71
2022/11/13 06:03:40;;;;;;;3.50;2.80;;;1.70;99.90;;;;;;5030548;28;20569;-70
2022/11/13 06:06:09;;;;;;;3.55;3.08;;;1.70;99.90;;;;;;5030694;28;20207;-71
2022/11/13 06:08:37;;;;;;;3.22;2.92;;;1.70;99.90;;;;;;5030689;28;20202;-69
2022/11/13 06:11:06;;;;;;;4.20;3.20;;;1.70;99.90;;;;;;5029860;28;20222;-70
2022/11/13 06:13:33;;;;;;;6.55;3.58;;;1.70;99.90;;;;;;5030885;28;20670;-70
2022/11/13 06:16:01;;;;;;;4.30;3.70;;;1.60;99.90;;;;;;5030239;28;20201;-69
2022/11/13 06:18:28;;;;;;;3.45;3.15;;;1.70;99.90;;;;;;5030668;28;20256;-69
2022/11/13 06:20:55;;;;;;;4.63;3.78;;;1.70;99.90;;;;;;5029948;28;20222;-71
2022/11/13 06:23:22;;;;;;;5.60;3.92;;;1.70;99.90;;;;;;5030114;28;20218;-71
2022/11/13 06:25:50;;;;;;;5.18;4.10;;;1.70;99.90;;;;;;5030774;28;20581;-69
2022/11/13 06:28:17;;;;;;;3.70;3.30;;;1.70;99.90;;;;;;5029966;28;20803;-69
2022/11/13 06:30:43;;;;;;;7.35;4.20;;;1.70;99.90;;;;;;5029919;28;20237;-70
2022/11/13 06:33:10;;;;;;;4.22;3.83;;;1.70;99.90;;;;;;5030146;28;20187;-70
2022/11/13 06:35:37;;;;;;;3.28;2.97;;;1.70;99.90;;;;;;5029915;28;20685;-70
2022/11/13 06:38:03;;;;;;;4.75;3.65;;;1.70;99.90;;;;;;5030431;28;20203;-69
2022/11/13 06:40:30;;;;;;;3.80;3.40;;;1.70;99.90;;;;;;5029872;28;20234;-70
2022/11/13 06:42:58;;;;;;;4.95;3.88;;;1.70;99.90;;;;;;5034211;28;20716;-70
2022/11/13 06:45:25;;;;;;;6.32;3.20;;;1.70;99.90;;;;;;5034183;28;20213;-70
2022/11/13 06:47:53;;;;;;;3.88;3.50;;;1.80;99.90;;;;;;5034038;28;20206;-70
2022/11/13 06:50:20;;;;;;;5.13;3.83;;;1.70;99.90;;;;;;5033837;28;20229;-69
2022/11/13 06:52:47;;;;;;;4.70;3.88;;;1.70;99.90;;;;;;5033714;28;20202;-70
2022/11/13 06:55:14;;;;;;;3.92;3.53;;;1.70;99.90;;;;;;5034388;28;20207;-70
2022/11/13 06:57:41;;;;;;;7.05;4.13;;;1.80;99.90;;;;;;5034151;28;20293;-70
2022/11/13 07:00:10;;;;;;;3.42;3.13;;;1.80;99.90;;;;;;5033501;28;20232;-70
2022/11/13 07:02:37;;;;;;;4.13;3.50;;;1.80;99.90;;;;;;5033633;28;20606;-70
2022/11/13 07:05:04;;;;;;;4.32;3.70;;;1.90;99.90;;;;;;5033502;28;20206;-70
2022/11/13 07:07:31;;;;;;;5.07;3.83;;;1.80;99.90;;;;;;5034069;28;20202;-69
2022/11/13 07:09:58;;;;;;;5.43;4.55;;;1.90;99.90;;;;;;5033964;28;20605;-70
2022/11/13 07:12:25;;;;;;;5.82;4.22;;;1.90;99.90;;;;;;5032643;28;20203;-70
2022/11/13 07:14:51;;;;;;;5.07;4.30;;;2.00;99.90;;;;;;5033916;28;20206;-70
2022/11/13 07:17:19;;;;;;;4.25;3.80;;;1.90;99.90;;;;;;5033240;28;20230;-70
2022/11/13 07:19:46;;;;;;;5.03;4.35;;;2.00;99.90;;;;;;5034162;28;20594;-70
2022/11/13 07:22:13;;;;;;;4.82;4.35;;;2.00;99.90;;;;;;5033239;28;20202;-70
2022/11/13 07:24:41;;;;;;;4.13;3.70;;;2.10;99.90;;;;;;5033403;28;20249;-71
2022/11/13 07:27:08;;;;;;;4.30;3.70;;;2.10;99.90;;;;;;5033649;28;20297;-70
2022/11/13 07:29:35;;;;;;;7.80;4.88;;;2.70;99.90;;;;;;5032029;28;20223;-69
2022/11/13 07:32:02;;;;;;;5.95;4.70;;;3.10;99.90;;;;;;5033100;28;20202;-69
2022/11/13 07:34:30;;;;;;;5.82;4.50;;;3.00;99.90;;;;;;5049267;22;20210;-65
2022/11/13 07:36:57;;;;;;;7.97;5.18;;;2.90;99.90;;;;;;5046822;28;20217;-67
2022/11/13 07:39:24;;;;;;;6.53;4.95;;;2.80;99.90;;;;;;5052816;28;20213;-68
2022/11/13 07:41:50;;;;;;;7.85;4.65;;;2.80;99.90;;;;;;5051999;28;20208;-68
2022/11/13 07:44:17;;;;;;;4.85;4.45;;;2.70;99.90;;;;;;5053120;28;20229;-68
2022/11/13 07:46:44;;;;;;;7.95;4.90;;;2.80;99.90;;;;;;5052766;28;20198;-68
2022/11/13 07:49:10;;;;;;;5.50;4.95;;;2.80;99.90;;;;;;5052453;28;20208;-68
2022/11/13 07:51:39;;;;;;;5.63;5.10;;;2.90;99.90;;;;;;5051740;28;20727;-68
2022/11/13 07:54:06;;;;;;;5.35;4.85;;;3.00;99.90;;;;;;5052436;28;20197;-68
2022/11/13 07:56:32;;;;;;;9.27;5.80;;;3.10;99.90;;;;;;5052280;28;20203;-67
2022/11/13 07:58:59;;;;;;;5.90;4.97;;;3.20;99.90;;;;;;5051805;28;20217;-67
2022/11/13 08:01:26;;;;;;;6.32;5.43;;;3.30;99.90;;;;;;5052000;28;20225;-68
2022/11/13 08:03:53;;;;;;;5.95;4.97;;;3.40;99.90;;;;;;5052290;28;20221;-68
2022/11/13 08:06:19;;;;;;;6.97;4.35;;;3.50;99.90;;;;;;5052162;28;20205;-68
2022/11/13 08:08:49;;;;;;;5.15;4.65;;;3.60;99.90;;;;;;5052502;28;20228;-68
2022/11/13 08:11:15;;;;;;;5.20;3.92;;;3.80;99.90;;;;;;5051502;28;20268;-68
2022/11/13 08:13:42;;;;;;;5.88;4.70;;;4.10;99.90;;;;;;5052307;28;20665;-68
2022/11/13 08:16:09;;;;;;;7.88;4.82;;;4.40;99.90;;;;;;5052455;28;20214;-68
2022/11/13 08:18:35;;;;;;;6.68;5.00;;;4.80;99.90;;;;;;5051951;28;20202;-68
2022/11/13 08:21:03;;;;;;;6.80;5.55;;;5.30;99.90;;;;;;5051724;28;20226;-68
2022/11/13 08:23:30;;;;;;;6.75;5.05;;;5.80;99.90;;;;;;5051825;28;20218;-68
2022/11/13 08:25:58;;;;;;;7.90;4.88;;;6.60;99.90;;;;;;5052270;28;20205;-66
2022/11/13 08:28:25;;;;;;;5.90;4.88;;;7.40;99.90;;;;;;5052186;28;20201;-65
2022/11/13 08:30:52;;;;;;;7.20;6.13;;;8.00;99.90;;;;;;5051216;28;20222;-65
2022/11/13 08:33:19;;;;;;;8.93;7.10;;;8.60;99.90;;;;;;5050257;28;20198;-65
2022/11/13 08:35:53;;;;;;;8.20;6.18;;;9.10;99.90;;;;;;5048057;28;20220;-65
2022/11/13 08:38:20;;;;;;;5.43;4.93;;;9.80;99.90;;;;;;5049754;28;20619;-65
2022/11/13 08:40:46;;;;;;;5.20;4.65;;;10.50;99.90;;;;;;5048792;28;20228;-65
2022/11/13 08:43:15;;;;;;;5.82;4.60;;;11.10;99.90;;;;;;5050332;28;20248;-66
2022/11/13 08:45:42;;;;;;;4.70;4.30;;;11.90;99.90;;;;;;5051406;28;20205;-65
2022/11/13 08:48:09;;;;;;;4.07;3.67;;;12.50;99.90;;;;;;5051610;28;20202;-65
2022/11/13 08:50:35;;;;;;;4.68;4.28;;;13.20;99.90;;;;;;5050836;28;20222;-66
2022/11/13 08:53:03;;;;;;;4.53;3.95;;;13.80;99.90;;;;;;5051617;28;20209;-66
2022/11/13 08:55:30;;;;;;;4.75;4.35;;;13.90;99.90;;;;;;5051432;28;20213;-65
2022/11/13 08:57:59;;;;;;;4.38;3.97;;;13.80;99.90;;;;;;5051296;28;20591;-66
2022/11/13 09:00:27;;;;;;;4.43;4.00;;;13.70;99.90;;;;;;5050723;28;20221;-66
2022/11/13 09:02:55;;;;;;;4.40;3.95;;;13.70;99.90;;;;;;5050942;28;20217;-65
2022/11/13 09:05:22;;;;;;;4.85;4.38;;;13.90;99.90;;;;;;5050963;28;20205;-65
2022/11/13 09:07:49;;;;;;;4.90;4.40;;;14.20;99.90;;;;;;5041449;28;20226;-65
2022/11/13 09:10:17;;;;;;;4.43;4.10;;;14.20;99.90;;;;;;5031084;28;20476;-65
2022/11/13 09:12:43;;;;;;;5.93;4.77;;;14.60;99.90;;;;;;5049906;28;20452;-66
2022/11/13 09:15:11;;;;;;;4.50;4.10;;;14.80;99.90;;;;;;5050199;28;20456;-65
2022/11/13 09:17:39;;;;;;;4.93;4.53;;;15.10;99.90;;;;;;5050533;28;20455;-66
2022/11/13 09:20:08;;;;;;;4.77;3.90;;;15.70;99.90;;;;;;5038406;28;20483;-66
2022/11/13 09:22:35;;;;;;;5.07;4.17;;;16.10;99.90;;;;;;5030006;28;20453;-65
2022/11/13 09:25:02;;;;;;;4.10;3.70;;;15.70;99.90;;;;;;5030034;28;20540;-65
2022/11/13 09:27:29;;;;;;;3.90;3.60;;;15.70;99.90;;;;;;5030604;28;20929;-65
2022/11/13 09:29:55;;;;;;;4.03;3.63;;;16.10;99.90;;;;;;5030587;28;20477;-66
2022/11/13 09:32:22;;;;;;;4.30;3.90;;;16.60;99.90;;;;;;5142467;22;20492;-69
2022/11/13 09:34:50;;;;;;;4.00;3.60;;;16.30;99.90;;;;;;5071199;22;20512;-69
2022/11/13 09:37:17;;;;;;;4.33;3.93;;;16.00;99.90;;;;;;5055068;28;20458;-67
2022/11/13 09:39:44;;;;;;;4.30;3.90;;;16.00;99.90;;;;;;5068757;28;21051;-69
2022/11/13 09:42:16;;;;;;;4.23;3.90;;;15.90;99.90;;;;;;5069633;28;20461;-69
2022/11/13 09:44:48;;;;;;;4.73;4.33;;;15.80;99.90;;;;;;5068793;28;20479;-67
2022/11/13 09:47:19;;;;;;;4.87;4.47;;;15.80;99.90;;;;;;5057808;28;20482;-69
2022/11/13 09:49:49;;;;;;;4.50;4.10;;;15.80;99.90;;;;;;5048663;28;20504;-69
2022/11/13 09:52:20;;;;;;;5.10;3.97;;;15.80;99.90;;;;;;5049280;28;20484;-69
2022/11/13 09:54:47;;;;;;;4.13;3.73;;;16.10;99.90;;;;;;5049168;28;20452;-69
2022/11/13 09:57:26;;;;;;;4.30;3.90;;;16.20;99.90;;;;;;5049215;28;20463;-69
2022/11/13 09:59:59;;;;;;;4.03;3.27;;;16.40;99.90;;;;;;5048704;28;20600;-69
2022/11/13 10:02:48;;;;;;;4.37;3.97;;;16.80;99.90;;;;;;5049051;28;20456;-69
2022/11/13 10:05:23;;;;;;;4.50;4.10;;;17.00;99.90;;;;;;5048195;28;20486;-69
2022/11/13 10:07:56;;;;;;;4.13;3.73;;;17.50;99.90;;;;;;5049217;28;20466;-70
2022/11/13 10:10:46;;;;;;;4.37;3.97;;;18.20;99.90;;;;;;5047433;28;20479;-69
2022/11/13 10:13:17;;;;;;;4.50;4.10;;;18.60;99.90;;;;;;5049979;28;20606;-69
2022/11/13 10:15:46;;;;;;;5.33;4.80;;;18.80;99.90;;;;;;5051779;28;20456;-69
2022/11/13 10:18:18;;;;;;;4.47;4.00;;;18.70;99.90;;;;;;5050607;28;20459;-69
2022/11/13 10:20:49;;;;;;;4.57;4.10;;;18.60;99.90;;;;;;5062046;28;20850;-69
2022/11/13 10:23:21;;;;;;;4.73;4.20;;;18.80;99.90;;;;;;5060908;28;20971;-67
2022/11/13 10:25:50;;;;;;;4.87;4.47;;;18.90;99.90;;;;;;5052979;28;21163;-68
2022/11/13 10:28:18;;;;;;;4.77;4.27;;;19.40;99.90;;;;;;5051694;28;20463;-67
2022/11/13 10:30:46;;;;;;;4.00;3.60;;;19.50;98.00;;;;;;5052121;28;20994;-67
2022/11/13 10:33:17;;;;;;;4.53;4.03;;;19.70;98.70;;;;;;5051136;28;20472;-69
2022/11/13 10:35:50;;;;;;;4.97;4.17;;;19.70;97.70;;;;;;5051389;28;20456;-69
2022/11/13 10:38:23;;;;;;;4.23;3.83;;;20.00;97.50;;;;;;5053550;28;20560;-69
2022/11/13 10:40:50;;;;;;;5.30;4.23;;;20.20;97.70;;;;;;5052399;28;20487;-68
2022/11/13 10:43:19;;;;;;;4.60;4.10;;;20.00;97.90;;;;;;5053220;28;20462;-69
2022/11/13 10:45:54;;;;;;;4.87;3.97;;;20.20;97.90;;;;;;5053424;28;21156;-68
2022/11/13 10:48:22;;;;;;;4.57;4.10;;;20.30;97.60;;;;;;5050809;28;20986;-68
2022/11/13 10:50:55;;;;;;;3.97;3.67;;;20.10;97.60;;;;;;5052162;28;20484;-66
2022/11/13 10:53:24;;;;;;;5.10;4.60;;;20.10;98.60;;;;;;5053751;28;20462;-69
2022/11/13 10:55:56;;;;;;;4.33;3.93;;;20.00;97.00;;;;;;5052899;28;20456;-69
2022/11/13 10:58:23;;;;;;;4.20;3.80;;;19.70;97.60;;;;;;5053591;28;20561;-69
2022/11/13 11:00:51;;;;;;;4.00;3.70;;;19.40;98.00;;;;;;5052122;28;20483;-69
2022/11/13 11:03:20;;;;;;;4.60;3.90;;;19.00;97.40;;;;;;5053220;28;20494;-70
2022/11/13 11:05:57;;;;;;;4.30;3.60;;;18.70;97.50;;;;;;5053020;28;20860;-69
2022/11/13 11:08:29;;;;;;;4.80;3.90;;;18.30;98.10;;;;;;5053437;28;20459;-69
2022/11/13 11:13:43;;;;;;;4.80;4.40;;;18.20;97.50;;;;;;5050953;28;20443;-69
2022/11/13 11:16:17;;;;;;;4.87;4.27;;;18.20;97.60;;;;;;5053562;28;20463;-68
2022/11/13 11:18:55;;;;;;;6.20;4.20;;;18.10;97.40;;;;;;5052189;28;20961;-69
2022/11/13 11:21:25;;;;;;;5.20;4.67;;;18.10;98.30;;;;;;5052458;28;20479;-69
2022/11/13 11:23:58;;;;;;;4.40;3.87;;;18.00;97.70;;;;;;5051765;28;20483;-69
2022/11/13 11:26:30;;;;;;;4.97;4.50;;;17.90;97.90;;;;;;5051612;28;20947;-69
2022/11/13 11:29:06;;;;;;;5.50;4.00;;;17.90;97.90;;;;;;5052097;28;20470;-69
2022/11/13 11:31:37;;;;;;;5.13;4.40;;;17.80;98.60;;;;;;5051066;28;20480;-69
2022/11/13 11:34:15;;;;;;;4.63;4.20;;;17.70;98.70;;;;;;5050625;28;20463;-69
2022/11/13 11:36:49;;;;;;;4.30;3.90;;;17.70;99.20;;;;;;5051145;28;20455;-69
2022/11/13 11:39:31;;;;;;;4.30;3.90;;;17.60;98.20;;;;;;5050567;28;21103;-69
2022/11/13 11:42:19;;;;;;;5.50;4.40;;;17.40;98.70;;;;;;5050933;28;20467;-69
2022/11/13 11:44:57;;;;;;;4.33;3.93;;;17.30;98.90;;;;;;5050940;28;20575;-69
2022/11/13 11:47:24;;;;;;;4.60;4.20;;;17.20;97.70;;;;;;5050809;28;20456;-69
2022/11/13 11:49:51;;;;;;;4.83;4.13;;;17.20;98.50;;;;;;5051028;28;20850;-69
2022/11/13 11:52:32;;;;;;;4.63;4.23;;;17.10;98.20;;;;;;5051320;28;20462;-69
2022/11/13 11:55:27;;;;;;;4.40;4.00;;;17.00;98.60;;;;;;5051717;28;20455;-70
2022/11/13 11:57:59;;;;;;;3.87;3.57;;;17.10;98.50;;;;;;5051452;28;21067;-69
2022/11/13 12:00:31;;;;;;;4.20;3.80;;;17.20;98.40;;;;;;5050835;28;20847;-69
2022/11/13 12:03:18;;;;;;;5.50;4.00;;;17.30;98.50;;;;;;5051273;28;20827;-68
2022/11/13 12:05:56;;;;;;;5.43;4.30;;;17.30;98.20;;;;;;5051453;28;20503;-70
2022/11/13 12:08:31;;;;;;;4.30;3.90;;;17.20;98.50;;;;;;5051372;28;20459;-69
2022/11/13 12:11:07;;;;;;;3.97;3.47;;;17.30;98.70;;;;;;5050012;28;20471;-70
2022/11/13 12:13:43;;;;;;;3.57;3.03;;;17.10;98.60;;;;;;5051659;28;20455;-70
2022/11/13 12:16:16;;;;;;;4.33;3.90;;;16.80;99.00;;;;;;5051050;28;20509;-70
2022/11/13 12:18:52;;;;;;;4.00;3.60;;;16.70;99.20;;;;;;5051060;28;20462;-69
2022/11/13 12:21:24;;;;;;;4.20;3.70;;;16.50;99.50;;;;;;5050970;28;20475;-69
2022/11/13 12:24:08;;;;;;;4.27;3.90;;;16.60;99.70;;;;;;5050705;28;21155;-70
2022/11/13 12:26:43;;;;;;;4.30;3.77;;;16.60;99.50;;;;;;5050395;28;20466;-70
2022/11/13 12:29:24;;;;;;;5.10;4.33;;;16.40;99.50;;;;;;5051113;28;20551;-69
2022/11/13 12:32:01;;;;;;;4.40;4.00;;;16.40;99.90;;;;;;5050134;28;20478;-70
2022/11/13 12:34:34;;;;;;;4.17;3.67;;;16.30;99.90;;;;;;5050805;28;20471;-70
2022/11/13 12:37:06;;;;;;;4.00;3.70;;;16.20;99.70;;;;;;5050574;28;20465;-70
2022/11/13 12:39:44;;;;;;;3.50;3.20;;;15.90;99.30;;;;;;5049466;28;20467;-69
2022/11/13 12:42:21;;;;;;;4.03;3.50;;;15.70;99.90;;;;;;5050837;28;20463;-69
2022/11/13 12:44:56;;;;;;;4.50;3.93;;;15.60;99.90;;;;;;5050275;28;20480;-69
2022/11/13 12:47:22;;;;;;;4.43;3.30;;;15.50;99.90;;;;;;5050708;28;20455;-69
2022/11/13 12:49:59;;;;;;;3.67;3.27;;;15.30;99.90;;;;;;5050319;28;20484;-69
2022/11/13 12:52:26;;;;;;;4.13;3.50;;;15.00;99.90;;;;;;5050347;28;20462;-69
2022/11/13 12:55:08;;;;;;;3.57;3.27;;;14.80;99.90;;;;;;5048709;28;21126;-69
2022/11/13 12:57:47;;;;;;;3.70;3.40;;;14.70;99.90;;;;;;5043949;28;20460;-69
2022/11/13 13:00:25;;;;;;;3.70;3.40;;;14.70;99.90;;;;;;5049937;28;20475;-69
2022/11/13 13:03:07;;;;;;;3.23;2.93;;;14.60;99.90;;;;;;5050549;28;20953;-69
2022/11/13 13:05:51;;;;;;;4.07;3.40;;;14.60;99.90;;;;;;5050203;28;20846;-69
2022/11/13 13:08:34;;;;;;;3.93;3.53;;;14.70;99.90;;;;;;5050154;28;20506;-69